Branca De Sagres — CUOV5 — position and weather

sailwx.info

Track history (hours):
 
Tides and Currents Weather Stations Pressure Air Temp Water Temp Dewpoint Dewpoint Depression Visibility Wind Speed Wind Dir Waves Ship Positions

Branca De Sagres

Last reported at 2017-Nov-18 02:30 UTC. Time now 2017-Nov-18 02:50 UTC.
Position N 38°08' W 009°28'.

Length 18 m.

MMSI: 204209000.

Date/timePositionNaut miles runAvg speedWind from/ knotsBaromVisibWave heightAir tempDewpointWater temp
2017-Nov-18 02:30N 38°08' W 009°28'1 2.1
2017-Nov-18 01:59N 38°09' W 009°27'0 0.3
2017-Nov-18 01:30N 38°09' W 009°27'0 0.6
2017-Nov-18 01:00N 38°09' W 009°27'0 0.7
2017-Nov-18 00:30N 38°10' W 009°27'1 0.8
2017-Nov-17 23:51N 38°09' W 009°26'2 6.4
2017-Nov-17 23:30N 38°07' W 009°27'2 4.1
2017-Nov-17 23:00N 38°09' W 009°27'1 1.9
2017-Nov-17 22:30N 38°10' W 009°27'0 0.9
2017-Nov-17 22:00N 38°11' W 009°26'0 0.8
2017-Nov-17 21:30N 38°11' W 009°26'0 0.7
2017-Nov-17 21:00N 38°11' W 009°26'0 0.8
2017-Nov-17 20:30N 38°12' W 009°26'0 0.4
2017-Nov-17 20:00N 38°12' W 009°26'0 0.7
2017-Nov-17 19:30N 38°12' W 009°25'0 0.7
2017-Nov-17 19:00N 38°12' W 009°25'0 0.7
2017-Nov-17 18:30N 38°12' W 009°25'0 0.8
2017-Nov-17 18:00N 38°12' W 009°24'0 0.7
2017-Nov-17 17:30N 38°12' W 009°24'0 0.7
2017-Nov-17 17:00N 38°13' W 009°23'0 0.7
2017-Nov-17 16:30N 38°13' W 009°23'0 0.6
2017-Nov-17 16:00N 38°13' W 009°23'0 0.5
2017-Nov-17 15:30N 38°13' W 009°23'3 5.1
2017-Nov-17 15:00N 38°15' W 009°20'4 8.4
2017-Nov-17 14:30N 38°18' W 009°16'4 8.4
2017-Nov-17 14:00N 38°21' W 009°13'5 9.0
2017-Nov-17 13:30N 38°24' W 009°09'3 5.1
2017-Nov-17 13:00N 38°26' W 009°07'0 0.0
2017-Nov-17 12:30N 38°26' W 009°07'0 0.0
2017-Nov-17 12:00N 38°26' W 009°07'0 0.0
2017-Nov-16 07:52N 38°26' W 009°07'0 0.0
2017-Nov-16 07:30N 38°26' W 009°07'0 0.2
2017-Nov-16 07:01N 38°26' W 009°07'1 2.8
2017-Nov-16 06:29N 38°25' W 009°08'5 8.4
2017-Nov-16 05:55N 38°21' W 009°12'4 8.5
2017-Nov-16 05:30N 38°19' W 009°15'4 8.4
2017-Nov-16 05:01N 38°16' W 009°18'4 7.9
2017-Nov-16 04:30N 38°13' W 009°22'3 5.3
2017-Nov-16 04:00N 38°11' W 009°25'2 3.4
2017-Nov-16 03:30N 38°12' W 009°27'2 4.6
2017-Nov-16 03:00N 38°10' W 009°27'3 5.0
2017-Nov-16 02:31N 38°08' W 009°29'1 2.9
2017-Nov-16 02:01N 38°09' W 009°28'0 0.3
2017-Nov-16 01:30N 38°09' W 009°28'0 0.3
2017-Nov-16 01:01N 38°09' W 009°27'0 0.6
2017-Nov-16 00:31N 38°09' W 009°27'0 0.7
2017-Nov-16 00:00N 38°10' W 009°27'0 0.7
2017-Nov-15 23:22N 38°10' W 009°27'0 0.8
2017-Nov-15 23:00N 38°10' W 009°27'0 0.8
2017-Nov-15 22:30N 38°11' W 009°27'0 0.7
2017-Nov-15 22:00N 38°11' W 009°26'0 0.8
2017-Nov-15 21:30N 38°11' W 009°26'0 0.7
2017-Nov-15 20:54N 38°12' W 009°26'0 0.7
2017-Nov-15 20:28N 38°12' W 009°25'0 0.7
2017-Nov-15 20:01N 38°12' W 009°25'0 0.3
2017-Nov-15 19:31N 38°12' W 009°25'0 0.8
2017-Nov-15 19:00N 38°12' W 009°25'0 0.8
2017-Nov-15 18:31N 38°12' W 009°24'0 0.7
2017-Nov-15 18:00N 38°12' W 009°24'0 0.5
2017-Nov-15 17:23N 38°13' W 009°24'0 0.6
2017-Nov-15 16:59N 38°13' W 009°23'0 0.6
2017-Nov-15 16:24N 38°13' W 009°23'0 0.5
2017-Nov-15 15:59N 38°13' W 009°23'0 0.4
2017-Nov-15 15:24N 38°13' W 009°23'6 8.2
2017-Nov-15 14:43N 38°17' W 009°17'2 8.2
2017-Nov-15 14:30N 38°18' W 009°16'4 8.1
2017-Nov-15 14:00N 38°21' W 009°12'5 8.8
2017-Nov-15 13:30N 38°25' W 009°08'2 1.6
2017-Nov-15 12:09N 38°26' W 009°07'0 0.0
2017-Nov-15 11:19N 38°26' W 009°07'0 0.5
2017-Nov-15 11:00N 38°26' W 009°07'0 0.0
2017-Nov-14 16:16N 38°26' W 009°07'0 0.0
2017-Nov-14 15:59N 38°26' W 009°07'0 0.0
2017-Nov-14 15:14N 38°26' W 009°07'0 0.0
2017-Nov-14 10:50N 38°26' W 009°07'0 0.0
2017-Nov-14 08:38N 38°26' W 009°07'0 0.0
2017-Nov-14 08:30N 38°26' W 009°07'0 0.3
2017-Nov-14 08:01N 38°26' W 009°07'1 1.4
2017-Nov-14 07:31N 38°26' W 009°07'4 8.3
2017-Nov-14 07:00N 38°23' W 009°11'4 8.2
2017-Nov-14 06:31N 38°20' W 009°15'4 8.1
2017-Nov-14 06:00N 38°17' W 009°18'11 3.0
2017-Nov-14 02:18N 38°09' W 009°28'0 0.2
2017-Nov-14 02:00N 38°09' W 009°28'0 0.4
2017-Nov-14 01:30N 38°09' W 009°27'0 0.7
2017-Nov-14 01:01N 38°09' W 009°27'0 0.8
2017-Nov-14 00:31N 38°09' W 009°27'2 0.6
2017-Nov-13 21:42N 38°11' W 009°26'  
2017-Nov-11 17:24N 38°26' W 009°07'0 0.0
2017-Nov-11 17:00N 38°26' W 009°07'0 0.3
2017-Nov-11 16:30N 38°26' W 009°07'1 2.9
2017-Nov-11 16:00N 38°25' W 009°07'4 8.4
2017-Nov-11 15:30N 38°21' W 009°10'4 8.3
2017-Nov-11 15:00N 38°19' W 009°14'4 7.9
2017-Nov-11 14:30N 38°16' W 009°18'4 8.0
2017-Nov-11 14:00N 38°13' W 009°21'3 4.9
2017-Nov-11 13:29N 38°12' W 009°24'1 2.8
2017-Nov-11 13:00N 38°11' W 009°25'2 3.5
2017-Nov-11 12:29N 38°09' W 009°27'3 5.4
2017-Nov-11 12:00N 38°07' W 009°29'2 3.2
2017-Nov-11 11:30N 38°09' W 009°28'0 0.4
2017-Nov-11 11:00N 38°09' W 009°28'0 0.6
2017-Nov-11 10:30N 38°09' W 009°28'0 0.8
2017-Nov-11 10:00N 38°09' W 009°27'0 0.7
2017-Nov-11 09:30N 38°10' W 009°27'0 0.8
2017-Nov-11 09:00N 38°10' W 009°27'0 0.8
2017-Nov-11 08:30N 38°11' W 009°27'0 0.8
2017-Nov-11 08:00N 38°11' W 009°27'0 0.7
2017-Nov-11 07:30N 38°11' W 009°27'0 0.8
2017-Nov-11 07:00N 38°11' W 009°26'0 0.7
2017-Nov-11 06:30N 38°12' W 009°26'0 0.7
2017-Nov-11 06:00N 38°12' W 009°25'0 0.6
2017-Nov-11 05:30N 38°12' W 009°25'0 0.8
2017-Nov-11 05:00N 38°12' W 009°24'0 0.8
2017-Nov-11 04:30N 38°12' W 009°24'0 0.7
2017-Nov-11 03:58N 38°12' W 009°24'0 0.7
2017-Nov-11 03:25N 38°13' W 009°23'0 0.6
2017-Nov-11 02:51N 38°13' W 009°23'0 0.4
2017-Nov-11 02:28N 38°13' W 009°23'0 0.2
2017-Nov-11 01:52N 38°13' W 009°23'2 4.2
2017-Nov-11 01:27N 38°14' W 009°21'4 8.4
2017-Nov-11 01:00N 38°17' W 009°18'5 8.6
2017-Nov-11 00:29N 38°20' W 009°14'4 8.4
2017-Nov-11 00:00N 38°23' W 009°10'4 8.6
2017-Nov-10 23:30N 38°26' W 009°06'0 0.6
2017-Nov-10 23:00N 38°26' W 009°07'0 0.0
2017-Nov-10 22:24N 38°26' W 009°07'0 0.0
2017-Nov-10 11:18N 38°26' W 009°07'0 0.0
2017-Nov-10 11:00N 38°26' W 009°07'0 0.0
2017-Nov-10 10:30N 38°26' W 009°07'0 0.0
2017-Nov-10 10:00N 38°26' W 009°07'0 0.0
2017-Nov-10 00:26N 38°26' W 009°07'0 0.2
2017-Nov-09 23:57N 38°26' W 009°07'0 0.7
2017-Nov-09 23:30N 38°26' W 009°06'5 8.4
2017-Nov-09 22:56N 38°23' W 009°11'4 8.2
2017-Nov-09 22:30N 38°20' W 009°14'4 7.6
2017-Nov-09 21:58N 38°17' W 009°17'3 7.1
2017-Nov-09 21:30N 38°15' W 009°20'1 0.0
2017-Nov-09 07:23N 38°15' W 009°20'14 8.4
2017-Nov-09 05:42N 38°26' W 009°07'1 3.9
2017-Nov-09 05:29N 38°26' W 009°07'0 0.0
2017-Nov-09 05:00N 38°26' W 009°07'0 0.0
2017-Nov-08 11:12N 38°26' W 009°07'0 0.0
2017-Nov-08 10:57N 38°26' W 009°07'  
Track history (hours):
 
Tides and Currents Weather Stations Pressure Air Temp Water Temp Dewpoint Dewpoint Depression Visibility Wind Speed Wind Dir Waves Ship Positions

Branca De Sagres

Last reported at 2017-Nov-18 02:30 UTC. Time now 2017-Nov-18 02:50 UTC.
Position N 38°08' W 009°28'.

Length 18 m.

MMSI: 204209000.

Date/timePositionNaut miles runAvg speedWind from/ knotsBaromVisibWave heightAir tempDewpointWater temp
2017-Nov-18 02:30N 38°08' W 009°28'1 2.1
2017-Nov-18 01:59N 38°09' W 009°27'0 0.3
2017-Nov-18 01:30N 38°09' W 009°27'0 0.6
2017-Nov-18 01:00N 38°09' W 009°27'0 0.7
2017-Nov-18 00:30N 38°10' W 009°27'1 0.8
2017-Nov-17 23:51N 38°09' W 009°26'2 6.4
2017-Nov-17 23:30N 38°07' W 009°27'2 4.1
2017-Nov-17 23:00N 38°09' W 009°27'1 1.9
2017-Nov-17 22:30N 38°10' W 009°27'0 0.9
2017-Nov-17 22:00N 38°11' W 009°26'0 0.8
2017-Nov-17 21:30N 38°11' W 009°26'0 0.7
2017-Nov-17 21:00N 38°11' W 009°26'0 0.8
2017-Nov-17 20:30N 38°12' W 009°26'0 0.4
2017-Nov-17 20:00N 38°12' W 009°26'0 0.7
2017-Nov-17 19:30N 38°12' W 009°25'0 0.7
2017-Nov-17 19:00N 38°12' W 009°25'0 0.7
2017-Nov-17 18:30N 38°12' W 009°25'0 0.8
2017-Nov-17 18:00N 38°12' W 009°24'0 0.7
2017-Nov-17 17:30N 38°12' W 009°24'0 0.7
2017-Nov-17 17:00N 38°13' W 009°23'0 0.7
2017-Nov-17 16:30N 38°13' W 009°23'0 0.6
2017-Nov-17 16:00N 38°13' W 009°23'0 0.5
2017-Nov-17 15:30N 38°13' W 009°23'3 5.1
2017-Nov-17 15:00N 38°15' W 009°20'4 8.4
2017-Nov-17 14:30N 38°18' W 009°16'4 8.4
2017-Nov-17 14:00N 38°21' W 009°13'5 9.0
2017-Nov-17 13:30N 38°24' W 009°09'3 5.1
2017-Nov-17 13:00N 38°26' W 009°07'0 0.0
2017-Nov-17 12:30N 38°26' W 009°07'0 0.0
2017-Nov-17 12:00N 38°26' W 009°07'0 0.0
2017-Nov-16 07:52N 38°26' W 009°07'0 0.0
2017-Nov-16 07:30N 38°26' W 009°07'0 0.2
2017-Nov-16 07:01N 38°26' W 009°07'1 2.8
2017-Nov-16 06:29N 38°25' W 009°08'5 8.4
2017-Nov-16 05:55N 38°21' W 009°12'4 8.5
2017-Nov-16 05:30N 38°19' W 009°15'4 8.4
2017-Nov-16 05:01N 38°16' W 009°18'4 7.9
2017-Nov-16 04:30N 38°13' W 009°22'3 5.3
2017-Nov-16 04:00N 38°11' W 009°25'2 3.4
2017-Nov-16 03:30N 38°12' W 009°27'2 4.6
2017-Nov-16 03:00N 38°10' W 009°27'3 5.0
2017-Nov-16 02:31N 38°08' W 009°29'1 2.9
2017-Nov-16 02:01N 38°09' W 009°28'0 0.3
2017-Nov-16 01:30N 38°09' W 009°28'0 0.3
2017-Nov-16 01:01N 38°09' W 009°27'0 0.6
2017-Nov-16 00:31N 38°09' W 009°27'0 0.7
2017-Nov-16 00:00N 38°10' W 009°27'0 0.7
2017-Nov-15 23:22N 38°10' W 009°27'0 0.8
2017-Nov-15 23:00N 38°10' W 009°27'0 0.8
2017-Nov-15 22:30N 38°11' W 009°27'0 0.7
2017-Nov-15 22:00N 38°11' W 009°26'0 0.8
2017-Nov-15 21:30N 38°11' W 009°26'0 0.7
2017-Nov-15 20:54N 38°12' W 009°26'0 0.7
2017-Nov-15 20:28N 38°12' W 009°25'0 0.7
2017-Nov-15 20:01N 38°12' W 009°25'0 0.3
2017-Nov-15 19:31N 38°12' W 009°25'0 0.8
2017-Nov-15 19:00N 38°12' W 009°25'0 0.8
2017-Nov-15 18:31N 38°12' W 009°24'0 0.7
2017-Nov-15 18:00N 38°12' W 009°24'0 0.5
2017-Nov-15 17:23N 38°13' W 009°24'0 0.6
2017-Nov-15 16:59N 38°13' W 009°23'0 0.6
2017-Nov-15 16:24N 38°13' W 009°23'0 0.5
2017-Nov-15 15:59N 38°13' W 009°23'0 0.4
2017-Nov-15 15:24N 38°13' W 009°23'6 8.2
2017-Nov-15 14:43N 38°17' W 009°17'2 8.2
2017-Nov-15 14:30N 38°18' W 009°16'4 8.1
2017-Nov-15 14:00N 38°21' W 009°12'5 8.8
2017-Nov-15 13:30N 38°25' W 009°08'2 1.6
2017-Nov-15 12:09N 38°26' W 009°07'0 0.0
2017-Nov-15 11:19N 38°26' W 009°07'0 0.5
2017-Nov-15 11:00N 38°26' W 009°07'0 0.0
2017-Nov-14 16:16N 38°26' W 009°07'0 0.0
2017-Nov-14 15:59N 38°26' W 009°07'0 0.0
2017-Nov-14 15:14N 38°26' W 009°07'0 0.0
2017-Nov-14 10:50N 38°26' W 009°07'0 0.0
2017-Nov-14 08:38N 38°26' W 009°07'0 0.0
2017-Nov-14 08:30N 38°26' W 009°07'0 0.3
2017-Nov-14 08:01N 38°26' W 009°07'1 1.4
2017-Nov-14 07:31N 38°26' W 009°07'4 8.3
2017-Nov-14 07:00N 38°23' W 009°11'4 8.2
2017-Nov-14 06:31N 38°20' W 009°15'4 8.1
2017-Nov-14 06:00N 38°17' W 009°18'11 3.0
2017-Nov-14 02:18N 38°09' W 009°28'0 0.2
2017-Nov-14 02:00N 38°09' W 009°28'0 0.4
2017-Nov-14 01:30N 38°09' W 009°27'0 0.7
2017-Nov-14 01:01N 38°09' W 009°27'0 0.8
2017-Nov-14 00:31N 38°09' W 009°27'2 0.6
2017-Nov-13 21:42N 38°11' W 009°26'  
2017-Nov-11 17:24N 38°26' W 009°07'0 0.0
2017-Nov-11 17:00N 38°26' W 009°07'0 0.3
2017-Nov-11 16:30N 38°26' W 009°07'1 2.9
2017-Nov-11 16:00N 38°25' W 009°07'4 8.4
2017-Nov-11 15:30N 38°21' W 009°10'4 8.3
2017-Nov-11 15:00N 38°19' W 009°14'4 7.9
2017-Nov-11 14:30N 38°16' W 009°18'4 8.0
2017-Nov-11 14:00N 38°13' W 009°21'3 4.9
2017-Nov-11 13:29N 38°12' W 009°24'1 2.8
2017-Nov-11 13:00N 38°11' W 009°25'2 3.5
2017-Nov-11 12:29N 38°09' W 009°27'3 5.4
2017-Nov-11 12:00N 38°07' W 009°29'2 3.2
2017-Nov-11 11:30N 38°09' W 009°28'0 0.4
2017-Nov-11 11:00N 38°09' W 009°28'0 0.6
2017-Nov-11 10:30N 38°09' W 009°28'0 0.8
2017-Nov-11 10:00N 38°09' W 009°27'0 0.7
2017-Nov-11 09:30N 38°10' W 009°27'0 0.8
2017-Nov-11 09:00N 38°10' W 009°27'0 0.8
2017-Nov-11 08:30N 38°11' W 009°27'0 0.8
2017-Nov-11 08:00N 38°11' W 009°27'0 0.7
2017-Nov-11 07:30N 38°11' W 009°27'0 0.8
2017-Nov-11 07:00N 38°11' W 009°26'0 0.7
2017-Nov-11 06:30N 38°12' W 009°26'0 0.7
2017-Nov-11 06:00N 38°12' W 009°25'0 0.6
2017-Nov-11 05:30N 38°12' W 009°25'0 0.8
2017-Nov-11 05:00N 38°12' W 009°24'0 0.8
2017-Nov-11 04:30N 38°12' W 009°24'0 0.7
2017-Nov-11 03:58N 38°12' W 009°24'0 0.7
2017-Nov-11 03:25N 38°13' W 009°23'0 0.6
2017-Nov-11 02:51N 38°13' W 009°23'0 0.4
2017-Nov-11 02:28N 38°13' W 009°23'0 0.2
2017-Nov-11 01:52N 38°13' W 009°23'2 4.2
2017-Nov-11 01:27N 38°14' W 009°21'4 8.4
2017-Nov-11 01:00N 38°17' W 009°18'5 8.6
2017-Nov-11 00:29N 38°20' W 009°14'4 8.4
2017-Nov-11 00:00N 38°23' W 009°10'4 8.6
2017-Nov-10 23:30N 38°26' W 009°06'0 0.6
2017-Nov-10 23:00N 38°26' W 009°07'0 0.0
2017-Nov-10 22:24N 38°26' W 009°07'0 0.0
2017-Nov-10 11:18N 38°26' W 009°07'0 0.0
2017-Nov-10 11:00N 38°26' W 009°07'0 0.0
2017-Nov-10 10:30N 38°26' W 009°07'0 0.0
2017-Nov-10 10:00N 38°26' W 009°07'0 0.0
2017-Nov-10 00:26N 38°26' W 009°07'0 0.2
2017-Nov-09 23:57N 38°26' W 009°07'0 0.7
2017-Nov-09 23:30N 38°26' W 009°06'5 8.4
2017-Nov-09 22:56N 38°23' W 009°11'4 8.2
2017-Nov-09 22:30N 38°20' W 009°14'4 7.6
2017-Nov-09 21:58N 38°17' W 009°17'3 7.1
2017-Nov-09 21:30N 38°15' W 009°20'1 0.0
2017-Nov-09 07:23N 38°15' W 009°20'14 8.4
2017-Nov-09 05:42N 38°26' W 009°07'1 3.9
2017-Nov-09 05:29N 38°26' W 009°07'0 0.0
2017-Nov-09 05:00N 38°26' W 009°07'0 0.0
2017-Nov-08 11:12N 38°26' W 009°07'0 0.0
2017-Nov-08 10:57N 38°26' W 009°07'  

Dump ship's entire track history